sensor_id;sensor_type;location;lat;lon;timestamp;temperature;humidity
25914;DHT22;13718;50.922;5.346;2023-04-03T00:00:40;3.90;99.90
25914;DHT22;13718;50.922;5.346;2023-04-03T00:03:05;3.90;99.90
25914;DHT22;13718;50.922;5.346;2023-04-03T00:05:31;3.90;99.90
25914;DHT22;13718;50.922;5.346;2023-04-03T00:07:56;3.90;99.90
25914;DHT22;13718;50.922;5.346;2023-04-03T00:10:22;3.80;99.90
25914;DHT22;13718;50.922;5.346;2023-04-03T00:12:47;3.90;99.90
25914;DHT22;13718;50.922;5.346;2023-04-03T00:15:13;3.90;99.90
25914;DHT22;13718;50.922;5.346;2023-04-03T00:17:39;3.90;99.90
25914;DHT22;13718;50.922;5.346;2023-04-03T00:20:04;3.80;99.90
25914;DHT22;13718;50.922;5.346;2023-04-03T00:22:31;3.90;99.90
25914;DHT22;13718;50.922;5.346;2023-04-03T00:24:56;3.80;99.90
25914;DHT22;13718;50.922;5.346;2023-04-03T00:27:22;3.90;99.90
25914;DHT22;13718;50.922;5.346;2023-04-03T00:29:47;3.90;99.90
25914;DHT22;13718;50.922;5.346;2023-04-03T00:32:13;3.90;99.90
25914;DHT22;13718;50.922;5.346;2023-04-03T00:34:38;3.90;99.90
25914;DHT22;13718;50.922;5.346;2023-04-03T00:37:04;3.90;99.90
25914;DHT22;13718;50.922;5.346;2023-04-03T00:39:30;3.80;99.90
25914;DHT22;13718;50.922;5.346;2023-04-03T00:41:55;3.70;99.90
25914;DHT22;13718;50.922;5.346;2023-04-03T00:44:21;3.80;99.90
25914;DHT22;13718;50.922;5.346;2023-04-03T00:46:47;3.80;99.90
25914;DHT22;13718;50.922;5.346;2023-04-03T00:49:13;3.70;99.90
25914;DHT22;13718;50.922;5.346;2023-04-03T00:51:38;3.70;99.90
25914;DHT22;13718;50.922;5.346;2023-04-03T00:54:05;3.60;99.90
25914;DHT22;13718;50.922;5.346;2023-04-03T00:56:31;3.50;99.90
25914;DHT22;13718;50.922;5.346;2023-04-03T00:58:59;3.40;99.90
25914;DHT22;13718;50.922;5.346;2023-04-03T01:01:26;3.20;99.90
25914;DHT22;13718;50.922;5.346;2023-04-03T01:03:52;3.20;99.90
25914;DHT22;13718;50.922;5.346;2023-04-03T01:06:19;3.20;99.90
25914;DHT22;13718;50.922;5.346;2023-04-03T01:08:47;3.10;99.90
25914;DHT22;13718;50.922;5.346;2023-04-03T01:11:13;3.10;99.90
25914;DHT22;13718;50.922;5.346;2023-04-03T01:13:39;3.00;99.90
25914;DHT22;13718;50.922;5.346;2023-04-03T01:16:05;3.00;99.90
25914;DHT22;13718;50.922;5.346;2023-04-03T01:18:31;3.00;99.90
25914;DHT22;13718;50.922;5.346;2023-04-03T01:21:40;2.90;99.90
25914;DHT22;13718;50.922;5.346;2023-04-03T01:23:58;2.90;99.90
25914;DHT22;13718;50.922;5.346;2023-04-03T01:26:25;2.80;99.90
25914;DHT22;13718;50.922;5.346;2023-04-03T01:28:51;2.80;99.90
25914;DHT22;13718;50.922;5.346;2023-04-03T01:31:25;2.70;99.90
25914;DHT22;13718;50.922;5.346;2023-04-03T01:33:52;2.80;99.90
25914;DHT22;13718;50.922;5.346;2023-04-03T01:36:19;2.80;99.90
25914;DHT22;13718;50.922;5.346;2023-04-03T01:38:46;2.80;99.90
25914;DHT22;13718;50.922;5.346;2023-04-03T01:41:11;2.70;99.90
25914;DHT22;13718;50.922;5.346;2023-04-03T01:43:37;2.60;99.90
25914;DHT22;13718;50.922;5.346;2023-04-03T01:46:02;2.60;99.90
25914;DHT22;13718;50.922;5.346;2023-04-03T01:48:28;2.50;99.90
25914;DHT22;13718;50.922;5.346;2023-04-03T01:50:53;2.50;99.90
25914;DHT22;13718;50.922;5.346;2023-04-03T01:53:19;2.50;99.90
25914;DHT22;13718;50.922;5.346;2023-04-03T01:55:44;2.50;99.90
25914;DHT22;13718;50.922;5.346;2023-04-03T01:58:10;2.40;99.90
25914;DHT22;13718;50.922;5.346;2023-04-03T02:00:35;2.30;99.90
25914;DHT22;13718;50.922;5.346;2023-04-03T02:03:01;2.20;99.90
25914;DHT22;13718;50.922;5.346;2023-04-03T02:05:27;2.30;99.90
25914;DHT22;13718;50.922;5.346;2023-04-03T02:07:53;2.30;99.90
25914;DHT22;13718;50.922;5.346;2023-04-03T02:10:18;2.30;99.90
25914;DHT22;13718;50.922;5.346;2023-04-03T02:12:44;2.30;99.90
25914;DHT22;13718;50.922;5.346;2023-04-03T02:15:10;2.30;99.90
25914;DHT22;13718;50.922;5.346;2023-04-03T02:17:36;2.20;99.90
25914;DHT22;13718;50.922;5.346;2023-04-03T02:20:01;2.20;99.90
25914;DHT22;13718;50.922;5.346;2023-04-03T02:22:28;2.10;99.90
25914;DHT22;13718;50.922;5.346;2023-04-03T02:24:53;2.10;99.90
25914;DHT22;13718;50.922;5.346;2023-04-03T02:27:19;2.10;99.90
25914;DHT22;13718;50.922;5.346;2023-04-03T02:29:45;2.00;99.90
25914;DHT22;13718;50.922;5.346;2023-04-03T02:32:10;2.00;99.90
25914;DHT22;13718;50.922;5.346;2023-04-03T02:34:36;2.10;99.90
25914;DHT22;13718;50.922;5.346;2023-04-03T02:37:01;2.10;99.90
25914;DHT22;13718;50.922;5.346;2023-04-03T02:39:27;2.10;99.90
25914;DHT22;13718;50.922;5.346;2023-04-03T02:41:52;2.10;99.90
25914;DHT22;13718;50.922;5.346;2023-04-03T02:44:18;2.10;99.90
25914;DHT22;13718;50.922;5.346;2023-04-03T02:46:44;2.00;99.90
25914;DHT22;13718;50.922;5.346;2023-04-03T02:49:09;2.00;99.90
25914;DHT22;13718;50.922;5.346;2023-04-03T02:51:35;1.90;99.90
25914;DHT22;13718;50.922;5.346;2023-04-03T02:54:00;2.00;99.90
25914;DHT22;13718;50.922;5.346;2023-04-03T02:56:26;2.00;99.90
25914;DHT22;13718;50.922;5.346;2023-04-03T02:58:52;2.00;99.90
25914;DHT22;13718;50.922;5.346;2023-04-03T03:01:18;2.00;99.90
25914;DHT22;13718;50.922;5.346;2023-04-03T03:03:43;2.00;99.90
25914;DHT22;13718;50.922;5.346;2023-04-03T03:06:10;2.00;99.90
25914;DHT22;13718;50.922;5.346;2023-04-03T03:08:36;1.90;99.90
25914;DHT22;13718;50.922;5.346;2023-04-03T03:11:02;1.80;99.90
25914;DHT22;13718;50.922;5.346;2023-04-03T03:13:28;1.70;99.90
25914;DHT22;13718;50.922;5.346;2023-04-03T03:15:54;1.70;99.90
25914;DHT22;13718;50.922;5.346;2023-04-03T03:18:19;1.60;99.90
25914;DHT22;13718;50.922;5.346;2023-04-03T03:20:45;1.60;99.90
25914;DHT22;13718;50.922;5.346;2023-04-03T03:23:11;1.60;99.90
25914;DHT22;13718;50.922;5.346;2023-04-03T03:25:40;1.50;99.90
25914;DHT22;13718;50.922;5.346;2023-04-03T03:28:05;1.50;99.90
25914;DHT22;13718;50.922;5.346;2023-04-03T03:30:31;1.50;99.90
25914;DHT22;13718;50.922;5.346;2023-04-03T03:32:56;1.50;99.90
25914;DHT22;13718;50.922;5.346;2023-04-03T03:35:22;1.50;99.90
25914;DHT22;13718;50.922;5.346;2023-04-03T03:37:47;1.50;99.90
25914;DHT22;13718;50.922;5.346;2023-04-03T03:40:13;1.60;99.90
25914;DHT22;13718;50.922;5.346;2023-04-03T03:42:38;1.70;99.90
25914;DHT22;13718;50.922;5.346;2023-04-03T03:45:04;1.70;99.90
25914;DHT22;13718;50.922;5.346;2023-04-03T03:47:30;1.70;99.90
25914;DHT22;13718;50.922;5.346;2023-04-03T03:49:55;1.70;99.90
25914;DHT22;13718;50.922;5.346;2023-04-03T03:52:21;1.60;99.90
25914;DHT22;13718;50.922;5.346;2023-04-03T03:54:46;1.60;99.90
25914;DHT22;13718;50.922;5.346;2023-04-03T03:57:12;1.60;99.90
25914;DHT22;13718;50.922;5.346;2023-04-03T03:59:37;1.70;99.90
25914;DHT22;13718;50.922;5.346;2023-04-03T04:02:03;1.60;99.90
25914;DHT22;13718;50.922;5.346;2023-04-03T04:04:28;1.50;99.90
25914;DHT22;13718;50.922;5.346;2023-04-03T04:06:54;1.50;99.90
25914;DHT22;13718;50.922;5.346;2023-04-03T04:09:19;1.40;99.90
25914;DHT22;13718;50.922;5.346;2023-04-03T04:11:45;1.30;99.90
25914;DHT22;13718;50.922;5.346;2023-04-03T04:14:11;1.30;99.90
25914;DHT22;13718;50.922;5.346;2023-04-03T04:16:38;1.30;99.90
25914;DHT22;13718;50.922;5.346;2023-04-03T04:19:04;1.30;99.90
25914;DHT22;13718;50.922;5.346;2023-04-03T04:21:29;1.30;99.90
25914;DHT22;13718;50.922;5.346;2023-04-03T04:23:55;1.30;99.90
25914;DHT22;13718;50.922;5.346;2023-04-03T04:26:20;1.40;99.90
25914;DHT22;13718;50.922;5.346;2023-04-03T04:28:46;1.40;99.90
25914;DHT22;13718;50.922;5.346;2023-04-03T04:31:11;1.30;99.90
25914;DHT22;13718;50.922;5.346;2023-04-03T04:33:37;1.30;99.90
25914;DHT22;13718;50.922;5.346;2023-04-03T04:36:02;1.20;99.90
25914;DHT22;13718;50.922;5.346;2023-04-03T04:38:28;1.30;99.90
25914;DHT22;13718;50.922;5.346;2023-04-03T04:40:53;1.30;99.90
25914;DHT22;13718;50.922;5.346;2023-04-03T04:43:19;1.40;99.90
25914;DHT22;13718;50.922;5.346;2023-04-03T04:45:45;1.50;99.90
25914;DHT22;13718;50.922;5.346;2023-04-03T04:48:10;1.50;99.90
25914;DHT22;13718;50.922;5.346;2023-04-03T04:50:36;1.60;99.90
25914;DHT22;13718;50.922;5.346;2023-04-03T04:53:02;1.60;99.90
25914;DHT22;13718;50.922;5.346;2023-04-03T04:55:27;1.70;99.90
25914;DHT22;13718;50.922;5.346;2023-04-03T04:57:52;1.70;99.90
25914;DHT22;13718;50.922;5.346;2023-04-03T05:00:18;1.70;99.90
25914;DHT22;13718;50.922;5.346;2023-04-03T05:02:44;1.70;99.90
25914;DHT22;13718;50.922;5.346;2023-04-03T05:05:09;1.70;99.90
25914;DHT22;13718;50.922;5.346;2023-04-03T05:07:35;1.70;99.90
25914;DHT22;13718;50.922;5.346;2023-04-03T05:10:01;1.80;99.90
25914;DHT22;13718;50.922;5.346;2023-04-03T05:12:27;1.70;99.90
25914;DHT22;13718;50.922;5.346;2023-04-03T05:14:53;1.70;99.90
25914;DHT22;13718;50.922;5.346;2023-04-03T05:17:18;1.70;99.90
25914;DHT22;13718;50.922;5.346;2023-04-03T05:19:44;1.80;99.90
25914;DHT22;13718;50.922;5.346;2023-04-03T05:22:10;1.80;99.90
25914;DHT22;13718;50.922;5.346;2023-04-03T05:24:35;1.80;99.90
25914;DHT22;13718;50.922;5.346;2023-04-03T05:27:01;1.80;99.90
25914;DHT22;13718;50.922;5.346;2023-04-03T05:29:26;1.70;99.90
25914;DHT22;13718;50.922;5.346;2023-04-03T05:31:52;1.70;99.90
25914;DHT22;13718;50.922;5.346;2023-04-03T05:34:17;1.70;99.90
25914;DHT22;13718;50.922;5.346;2023-04-03T05:36:43;1.80;99.90
25914;DHT22;13718;50.922;5.346;2023-04-03T05:39:09;1.90;99.90
25914;DHT22;13718;50.922;5.346;2023-04-03T05:41:34;2.00;99.90
25914;DHT22;13718;50.922;5.346;2023-04-03T05:44:00;2.00;99.90
25914;DHT22;13718;50.922;5.346;2023-04-03T05:46:25;2.10;99.90
25914;DHT22;13718;50.922;5.346;2023-04-03T05:48:51;2.30;99.90
25914;DHT22;13718;50.922;5.346;2023-04-03T05:51:21;2.60;99.90
25914;DHT22;13718;50.922;5.346;2023-04-03T05:53:47;2.80;99.90
25914;DHT22;13718;50.922;5.346;2023-04-03T05:56:14;3.20;99.90
25914;DHT22;13718;50.922;5.346;2023-04-03T05:58:39;3.50;99.90
25914;DHT22;13718;50.922;5.346;2023-04-03T06:01:05;3.80;99.90
25914;DHT22;13718;50.922;5.346;2023-04-03T06:03:31;4.00;99.90
25914;DHT22;13718;50.922;5.346;2023-04-03T06:05:56;4.20;99.90
25914;DHT22;13718;50.922;5.346;2023-04-03T06:08:22;4.40;99.90
25914;DHT22;13718;50.922;5.346;2023-04-03T06:10:49;4.60;99.90
25914;DHT22;13718;50.922;5.346;2023-04-03T06:13:16;4.70;99.90
25914;DHT22;13718;50.922;5.346;2023-04-03T06:15:43;4.90;99.90
25914;DHT22;13718;50.922;5.346;2023-04-03T06:18:09;5.20;99.90
25914;DHT22;13718;50.922;5.346;2023-04-03T06:20:35;5.60;99.90
25914;DHT22;13718;50.922;5.346;2023-04-03T06:23:00;6.00;99.90
25914;DHT22;13718;50.922;5.346;2023-04-03T06:25:26;6.60;99.90
25914;DHT22;13718;50.922;5.346;2023-04-03T06:27:51;7.10;99.90
25914;DHT22;13718;50.922;5.346;2023-04-03T06:30:17;7.60;99.90
25914;DHT22;13718;50.922;5.346;2023-04-03T06:32:42;8.20;99.90
25914;DHT22;13718;50.922;5.346;2023-04-03T06:35:08;8.20;99.90
25914;DHT22;13718;50.922;5.346;2023-04-03T06:37:34;8.60;99.90
25914;DHT22;13718;50.922;5.346;2023-04-03T06:40:00;8.90;99.90
25914;DHT22;13718;50.922;5.346;2023-04-03T06:42:25;8.80;99.90
25914;DHT22;13718;50.922;5.346;2023-04-03T06:44:51;9.10;99.90
25914;DHT22;13718;50.922;5.346;2023-04-03T06:47:16;9.70;99.90
25914;DHT22;13718;50.922;5.346;2023-04-03T06:49:42;10.10;99.90
25914;DHT22;13718;50.922;5.346;2023-04-03T06:52:08;9.70;99.90
25914;DHT22;13718;50.922;5.346;2023-04-03T06:54:33;8.90;99.90
25914;DHT22;13718;50.922;5.346;2023-04-03T06:56:59;8.60;99.90
25914;DHT22;13718;50.922;5.346;2023-04-03T06:59:25;8.50;99.90
25914;DHT22;13718;50.922;5.346;2023-04-03T07:01:51;8.40;99.90
25914;DHT22;13718;50.922;5.346;2023-04-03T07:04:17;8.30;99.90
25914;DHT22;13718;50.922;5.346;2023-04-03T07:06:44;8.60;99.90
25914;DHT22;13718;50.922;5.346;2023-04-03T07:09:10;8.90;99.90
25914;DHT22;13718;50.922;5.346;2023-04-03T07:11:36;9.20;99.90
25914;DHT22;13718;50.922;5.346;2023-04-03T07:14:02;9.30;99.90
25914;DHT22;13718;50.922;5.346;2023-04-03T07:16:28;9.60;99.90
25914;DHT22;13718;50.922;5.346;2023-04-03T07:18:56;10.00;99.90
25914;DHT22;13718;50.922;5.346;2023-04-03T07:21:21;9.90;99.90
25914;DHT22;13718;50.922;5.346;2023-04-03T07:23:47;9.90;99.90
25914;DHT22;13718;50.922;5.346;2023-04-03T07:26:12;10.00;99.90
25914;DHT22;13718;50.922;5.346;2023-04-03T07:28:38;10.00;99.90
25914;DHT22;13718;50.922;5.346;2023-04-03T07:31:06;10.30;99.90
25914;DHT22;13718;50.922;5.346;2023-04-03T07:33:33;10.70;99.90
25914;DHT22;13718;50.922;5.346;2023-04-03T07:36:00;10.70;99.90
25914;DHT22;13718;50.922;5.346;2023-04-03T07:38:26;11.40;99.90
25914;DHT22;13718;50.922;5.346;2023-04-03T07:40:52;11.90;99.90
25914;DHT22;13718;50.922;5.346;2023-04-03T07:43:18;12.30;99.90
25914;DHT22;13718;50.922;5.346;2023-04-03T07:45:45;12.00;99.60
25914;DHT22;13718;50.922;5.346;2023-04-03T07:48:12;11.70;99.80
25914;DHT22;13718;50.922;5.346;2023-04-03T07:50:41;11.40;99.90
25914;DHT22;13718;50.922;5.346;2023-04-03T07:53:06;11.10;99.90
25914;DHT22;13718;50.922;5.346;2023-04-03T07:55:33;10.90;99.90
25914;DHT22;13718;50.922;5.346;2023-04-03T07:57:58;10.60;99.90
25914;DHT22;13718;50.922;5.346;2023-04-03T08:00:24;10.80;99.90
25914;DHT22;13718;50.922;5.346;2023-04-03T08:02:50;11.60;99.60
25914;DHT22;13718;50.922;5.346;2023-04-03T08:05:17;12.50;99.10
25914;DHT22;13718;50.922;5.346;2023-04-03T08:07:42;13.40;96.70
25914;DHT22;13718;50.922;5.346;2023-04-03T08:10:08;13.50;95.10
25914;DHT22;13718;50.922;5.346;2023-04-03T08:12:34;14.00;94.50
25914;DHT22;13718;50.922;5.346;2023-04-03T08:15:00;14.30;93.50
25914;DHT22;13718;50.922;5.346;2023-04-03T08:17:26;15.00;92.20
25914;DHT22;13718;50.922;5.346;2023-04-03T08:19:52;16.00;90.10
25914;DHT22;13718;50.922;5.346;2023-04-03T08:22:17;16.70;88.10
25914;DHT22;13718;50.922;5.346;2023-04-03T08:24:43;17.70;84.00
25914;DHT22;13718;50.922;5.346;2023-04-03T08:27:08;18.20;79.80
25914;DHT22;13718;50.922;5.346;2023-04-03T08:29:34;18.50;75.60
25914;DHT22;13718;50.922;5.346;2023-04-03T08:31:59;18.30;75.00
25914;DHT22;13718;50.922;5.346;2023-04-03T08:34:25;18.30;73.90
25914;DHT22;13718;50.922;5.346;2023-04-03T08:36:51;17.90;74.40
25914;DHT22;13718;50.922;5.346;2023-04-03T08:39:16;18.10;73.00
25914;DHT22;13718;50.922;5.346;2023-04-03T08:41:42;18.30;73.30
25914;DHT22;13718;50.922;5.346;2023-04-03T08:44:17;18.60;70.30
25914;DHT22;13718;50.922;5.346;2023-04-03T08:46:47;19.20;70.90
25914;DHT22;13718;50.922;5.346;2023-04-03T08:49:22;19.50;69.10
25914;DHT22;13718;50.922;5.346;2023-04-03T08:51:49;19.20;66.50
25914;DHT22;13718;50.922;5.346;2023-04-03T08:54:35;18.40;67.40
25914;DHT22;13718;50.922;5.346;2023-04-03T08:57:03;17.80;68.60
25914;DHT22;13718;50.922;5.346;2023-04-03T08:59:31;17.90;68.10
25914;DHT22;13718;50.922;5.346;2023-04-03T09:01:57;17.70;68.60
25914;DHT22;13718;50.922;5.346;2023-04-03T09:04:24;18.20;67.90
25914;DHT22;13718;50.922;5.346;2023-04-03T09:06:56;18.10;67.90
25914;DHT22;13718;50.922;5.346;2023-04-03T09:14:26;12.60;78.50
25914;DHT22;13718;50.922;5.346;2023-04-03T09:19:41;11.30;83.00
25914;DHT22;13718;50.922;5.346;2023-04-03T09:22:20;10.90;84.80
25914;DHT22;13718;50.922;5.346;2023-04-03T09:24:47;10.40;86.10
25914;DHT22;13718;50.922;5.346;2023-04-03T09:27:15;9.90;89.80
25914;DHT22;13718;50.922;5.346;2023-04-03T09:29:41;10.00;90.10
25914;DHT22;13718;50.922;5.346;2023-04-03T09:32:32;9.70;90.10
25914;DHT22;13718;50.922;5.346;2023-04-03T09:34:58;9.60;90.60
25914;DHT22;13718;50.922;5.346;2023-04-03T09:39:59;9.80;88.40
25914;DHT22;13718;50.922;5.346;2023-04-03T09:42:24;9.80;89.40
25914;DHT22;13718;50.922;5.346;2023-04-03T09:45:18;9.60;89.50
25914;DHT22;13718;50.922;5.346;2023-04-03T09:47:39;9.70;87.90
25914;DHT22;13718;50.922;5.346;2023-04-03T09:52:34;9.20;89.40
25914;DHT22;13718;50.922;5.346;2023-04-03T09:55:08;9.10;90.00
25914;DHT22;13718;50.922;5.346;2023-04-03T09:57:33;9.00;90.40
25914;DHT22;13718;50.922;5.346;2023-04-03T10:00:00;8.80;90.80
25914;DHT22;13718;50.922;5.346;2023-04-03T10:02:33;8.60;91.20
25914;DHT22;13718;50.922;5.346;2023-04-03T10:05:00;8.60;90.90
25914;DHT22;13718;50.922;5.346;2023-04-03T10:07:26;8.70;90.40
25914;DHT22;13718;50.922;5.346;2023-04-03T10:09:59;8.60;90.20
25914;DHT22;13718;50.922;5.346;2023-04-03T10:12:25;8.50;91.00
25914;DHT22;13718;50.922;5.346;2023-04-03T10:22:44;9.50;82.80
25914;DHT22;13718;50.922;5.346;2023-04-03T10:27:53;9.60;80.40
25914;DHT22;13718;50.922;5.346;2023-04-03T10:30:24;9.50;78.40
25914;DHT22;13718;50.922;5.346;2023-04-03T10:43:09;9.20;75.90
25914;DHT22;13718;50.922;5.346;2023-04-03T10:48:35;9.60;73.60
25914;DHT22;13718;50.922;5.346;2023-04-03T10:53:39;9.50;75.20
25914;DHT22;13718;50.922;5.346;2023-04-03T10:58:54;9.70;69.60
25914;DHT22;13718;50.922;5.346;2023-04-03T11:01:36;9.80;71.50
25914;DHT22;13718;50.922;5.346;2023-04-03T11:04:03;9.70;71.90
25914;DHT22;13718;50.922;5.346;2023-04-03T11:06:35;9.80;70.10
25914;DHT22;13718;50.922;5.346;2023-04-03T11:09:07;9.70;72.40
25914;DHT22;13718;50.922;5.346;2023-04-03T11:11:38;9.70;74.20
25914;DHT22;13718;50.922;5.346;2023-04-03T11:14:08;9.40;71.80
25914;DHT22;13718;50.922;5.346;2023-04-03T11:16:36;9.40;71.60
25914;DHT22;13718;50.922;5.346;2023-04-03T11:19:04;9.80;71.00
25914;DHT22;13718;50.922;5.346;2023-04-03T11:21:40;9.90;68.30
25914;DHT22;13718;50.922;5.346;2023-04-03T11:24:20;9.90;69.60
25914;DHT22;13718;50.922;5.346;2023-04-03T11:26:47;9.60;67.30
25914;DHT22;13718;50.922;5.346;2023-04-03T11:29:14;9.20;71.50
25914;DHT22;13718;50.922;5.346;2023-04-03T11:36:54;9.80;70.20
25914;DHT22;13718;50.922;5.346;2023-04-03T11:39:33;9.80;70.00
25914;DHT22;13718;50.922;5.346;2023-04-03T11:44:43;9.90;72.50
25914;DHT22;13718;50.922;5.346;2023-04-03T11:47:09;9.80;74.90
25914;DHT22;13718;50.922;5.346;2023-04-03T11:55:54;9.90;70.70
25914;DHT22;13718;50.922;5.346;2023-04-03T12:05:52;10.20;69.20
25914;DHT22;13718;50.922;5.346;2023-04-03T12:18:58;10.40;74.30
25914;DHT22;13718;50.922;5.346;2023-04-03T12:29:34;10.00;70.70
25914;DHT22;13718;50.922;5.346;2023-04-03T12:32:07;10.00;70.10
25914;DHT22;13718;50.922;5.346;2023-04-03T12:34:43;10.00;71.60
25914;DHT22;13718;50.922;5.346;2023-04-03T12:39:58;10.30;69.20
25914;DHT22;13718;50.922;5.346;2023-04-03T12:42:54;10.20;70.80
25914;DHT22;13718;50.922;5.346;2023-04-03T12:45:24;10.10;72.70
25914;DHT22;13718;50.922;5.346;2023-04-03T12:47:51;10.40;71.60
25914;DHT22;13718;50.922;5.346;2023-04-03T12:50:18;10.50;70.70
25914;DHT22;13718;50.922;5.346;2023-04-03T12:53:05;10.40;72.00
25914;DHT22;13718;50.922;5.346;2023-04-03T12:55:31;10.10;71.40
25914;DHT22;13718;50.922;5.346;2023-04-03T12:57:57;10.40;73.30
25914;DHT22;13718;50.922;5.346;2023-04-03T13:00:33;10.50;71.40
25914;DHT22;13718;50.922;5.346;2023-04-03T13:03:00;10.20;72.80
25914;DHT22;13718;50.922;5.346;2023-04-03T13:05:26;10.50;74.40
25914;DHT22;13718;50.922;5.346;2023-04-03T13:07:56;10.50;73.20
25914;DHT22;13718;50.922;5.346;2023-04-03T13:10:22;10.50;72.90
25914;DHT22;13718;50.922;5.346;2023-04-03T13:12:49;10.50;72.30
25914;DHT22;13718;50.922;5.346;2023-04-03T13:15:24;10.20;73.40
25914;DHT22;13718;50.922;5.346;2023-04-03T13:17:51;10.10;75.10
25914;DHT22;13718;50.922;5.346;2023-04-03T13:20:23;10.20;73.20
25914;DHT22;13718;50.922;5.346;2023-04-03T13:22:56;10.10;75.40
25914;DHT22;13718;50.922;5.346;2023-04-03T13:25:23;10.00;74.80
25914;DHT22;13718;50.922;5.346;2023-04-03T13:27:49;10.20;73.10
25914;DHT22;13718;50.922;5.346;2023-04-03T13:30:17;10.50;73.20
25914;DHT22;13718;50.922;5.346;2023-04-03T13:32:45;10.70;73.20
25914;DHT22;13718;50.922;5.346;2023-04-03T13:37:55;10.90;73.40
25914;DHT22;13718;50.922;5.346;2023-04-03T13:40:21;10.90;73.70
25914;DHT22;13718;50.922;5.346;2023-04-03T13:42:46;10.90;75.00
25914;DHT22;13718;50.922;5.346;2023-04-03T13:45:24;11.00;73.80
25914;DHT22;13718;50.922;5.346;2023-04-03T13:48:05;10.90;73.60
25914;DHT22;13718;50.922;5.346;2023-04-03T13:50:31;10.90;74.60
25914;DHT22;13718;50.922;5.346;2023-04-03T13:53:01;11.00;75.40
25914;DHT22;13718;50.922;5.346;2023-04-03T13:55:29;10.70;76.00
25914;DHT22;13718;50.922;5.346;2023-04-03T13:58:37;10.50;76.60
25914;DHT22;13718;50.922;5.346;2023-04-03T14:03:20;10.80;75.40
25914;DHT22;13718;50.922;5.346;2023-04-03T14:05:46;10.90;75.10
25914;DHT22;13718;50.922;5.346;2023-04-03T14:08:12;11.00;72.00
25914;DHT22;13718;50.922;5.346;2023-04-03T14:10:38;11.10;72.40
25914;DHT22;13718;50.922;5.346;2023-04-03T14:13:03;11.10;73.60
25914;DHT22;13718;50.922;5.346;2023-04-03T14:15:30;11.00;72.70
25914;DHT22;13718;50.922;5.346;2023-04-03T14:17:56;11.00;74.40
25914;DHT22;13718;50.922;5.346;2023-04-03T14:20:24;10.70;75.80
25914;DHT22;13718;50.922;5.346;2023-04-03T14:22:50;10.60;76.00
25914;DHT22;13718;50.922;5.346;2023-04-03T14:25:16;10.50;76.20
25914;DHT22;13718;50.922;5.346;2023-04-03T14:27:43;10.60;75.80
25914;DHT22;13718;50.922;5.346;2023-04-03T14:30:12;10.90;74.30
25914;DHT22;13718;50.922;5.346;2023-04-03T14:32:38;11.20;73.50
25914;DHT22;13718;50.922;5.346;2023-04-03T14:35:04;10.90;74.40
25914;DHT22;13718;50.922;5.346;2023-04-03T14:37:30;10.90;73.60
25914;DHT22;13718;50.922;5.346;2023-04-03T14:39:58;11.10;74.30
25914;DHT22;13718;50.922;5.346;2023-04-03T14:42:25;11.20;73.10
25914;DHT22;13718;50.922;5.346;2023-04-03T14:44:51;11.40;73.90
25914;DHT22;13718;50.922;5.346;2023-04-03T14:47:21;11.40;72.90
25914;DHT22;13718;50.922;5.346;2023-04-03T14:49:47;11.40;72.90
25914;DHT22;13718;50.922;5.346;2023-04-03T14:52:21;11.30;73.10
25914;DHT22;13718;50.922;5.346;2023-04-03T14:54:48;11.40;72.40
25914;DHT22;13718;50.922;5.346;2023-04-03T14:57:13;11.20;72.70
25914;DHT22;13718;50.922;5.346;2023-04-03T14:59:39;11.20;72.10
25914;DHT22;13718;50.922;5.346;2023-04-03T15:02:20;11.20;73.00
25914;DHT22;13718;50.922;5.346;2023-04-03T15:04:47;10.90;75.20
25914;DHT22;13718;50.922;5.346;2023-04-03T15:07:13;11.20;74.80
25914;DHT22;13718;50.922;5.346;2023-04-03T15:09:38;11.20;74.40
25914;DHT22;13718;50.922;5.346;2023-04-03T15:12:04;11.30;74.70
25914;DHT22;13718;50.922;5.346;2023-04-03T15:14:29;11.50;73.00
25914;DHT22;13718;50.922;5.346;2023-04-03T15:16:55;11.20;74.10
25914;DHT22;13718;50.922;5.346;2023-04-03T15:19:20;11.30;74.00
25914;DHT22;13718;50.922;5.346;2023-04-03T15:21:46;11.50;70.90
25914;DHT22;13718;50.922;5.346;2023-04-03T15:24:11;11.40;71.30
25914;DHT22;13718;50.922;5.346;2023-04-03T15:26:37;11.60;72.60
25914;DHT22;13718;50.922;5.346;2023-04-03T15:29:03;11.50;73.10
25914;DHT22;13718;50.922;5.346;2023-04-03T15:31:28;11.30;73.20
25914;DHT22;13718;50.922;5.346;2023-04-03T15:33:54;11.00;74.30
25914;DHT22;13718;50.922;5.346;2023-04-03T15:36:20;10.60;75.60
25914;DHT22;13718;50.922;5.346;2023-04-03T15:38:45;10.60;76.00
25914;DHT22;13718;50.922;5.346;2023-04-03T15:41:11;10.70;75.40
25914;DHT22;13718;50.922;5.346;2023-04-03T15:43:36;10.80;75.40
25914;DHT22;13718;50.922;5.346;2023-04-03T15:46:02;10.70;75.10
25914;DHT22;13718;50.922;5.346;2023-04-03T15:48:28;11.10;74.70
25914;DHT22;13718;50.922;5.346;2023-04-03T15:50:54;11.30;73.40
25914;DHT22;13718;50.922;5.346;2023-04-03T15:53:19;11.00;73.90
25914;DHT22;13718;50.922;5.346;2023-04-03T15:55:45;10.90;74.90
25914;DHT22;13718;50.922;5.346;2023-04-03T15:58:10;10.90;74.20
25914;DHT22;13718;50.922;5.346;2023-04-03T16:00:36;10.90;73.80
25914;DHT22;13718;50.922;5.346;2023-04-03T16:03:10;11.20;74.70
25914;DHT22;13718;50.922;5.346;2023-04-03T16:05:36;11.30;74.30
25914;DHT22;13718;50.922;5.346;2023-04-03T16:08:02;11.10;72.70
25914;DHT22;13718;50.922;5.346;2023-04-03T16:10:28;10.80;73.60
25914;DHT22;13718;50.922;5.346;2023-04-03T16:12:54;11.10;73.50
25914;DHT22;13718;50.922;5.346;2023-04-03T16:15:19;11.20;72.60
25914;DHT22;13718;50.922;5.346;2023-04-03T16:17:45;11.10;72.60
25914;DHT22;13718;50.922;5.346;2023-04-03T16:20:11;10.90;74.20
25914;DHT22;13718;50.922;5.346;2023-04-03T16:22:38;10.80;73.70
25914;DHT22;13718;50.922;5.346;2023-04-03T16:25:05;10.80;74.10
25914;DHT22;13718;50.922;5.346;2023-04-03T16:27:30;10.70;73.20
25914;DHT22;13718;50.922;5.346;2023-04-03T16:29:56;10.90;72.50
25914;DHT22;13718;50.922;5.346;2023-04-03T16:32:22;10.90;73.10
25914;DHT22;13718;50.922;5.346;2023-04-03T16:34:48;10.70;73.70
25914;DHT22;13718;50.922;5.346;2023-04-03T16:37:14;10.60;73.60
25914;DHT22;13718;50.922;5.346;2023-04-03T16:39:40;10.40;74.90
25914;DHT22;13718;50.922;5.346;2023-04-03T16:42:05;10.60;74.00
25914;DHT22;13718;50.922;5.346;2023-04-03T16:44:31;10.40;74.70
25914;DHT22;13718;50.922;5.346;2023-04-03T16:46:56;10.40;73.70
25914;DHT22;13718;50.922;5.346;2023-04-03T16:49:22;10.40;73.80
25914;DHT22;13718;50.922;5.346;2023-04-03T16:51:48;10.30;74.30
25914;DHT22;13718;50.922;5.346;2023-04-03T16:54:13;10.20;73.70
25914;DHT22;13718;50.922;5.346;2023-04-03T16:56:39;10.10;74.40
25914;DHT22;13718;50.922;5.346;2023-04-03T16:59:05;10.10;74.80
25914;DHT22;13718;50.922;5.346;2023-04-03T17:01:30;10.30;73.60
25914;DHT22;13718;50.922;5.346;2023-04-03T17:03:56;10.50;73.60
25914;DHT22;13718;50.922;5.346;2023-04-03T17:06:22;10.40;72.80
25914;DHT22;13718;50.922;5.346;2023-04-03T17:08:49;9.90;74.50